Terminal Aerodrome Forecast
Issued by NWS

Home | Current Version | Previous Version | Text Only | Print | Product List | Glossary On
Versions: 1 2 3 4 5 6 7 8 9 10 11 12 13 14 15 16 17 18 19 20 21 22 23 24 25 26 27 28 29
013
FTUS43 KDLH 072340
TAFHYR
TAF
KHYR 072340Z 0800/0824 25011G20KT 4SM -SN BKN027 OVC035
     FM080200 26013KT 4SM -SN BR BKN018 OVC024
     FM080900 30010KT 5SM -SHSN OVC015
     FM081800 32009KT P6SM VCSH OVC018=

USA.gov is the U.S. government's official web portal to all federal, state and local government web resources and services.